首页
METAR-TAF:

METAR-TAF

机场 :

克赖斯特彻奇国际机场

基督城, 新西兰

纬度: 43-29S, 经度: 172-33E, 海拔: 38米

当前天气观测

该预报发布于18分钟前的04:00 UTC
风速7节,风向东转东北
温度 8°C
湿度 71%
气压 1011 hPa
能见度10公里或以上

METAR: NZCH 230400Z AUTO 06007KT 9999 NCD 08/03 Q1011 NOSIG

时间: 16:18 (04:18 UTC)

预报

该预报发布于5小时和16分钟前的23:02 UTC
预报有效从23日的 00点(UTC)到 24日的 00点(UTC)
风速5节,风向东北
能见度10公里或以上
1500米以下无云,无积雨云
成为
从 23日的 19点(UTC)到 23日的 21点(UTC)
风速15节,风向东北

TAF: NZCH 222302Z 2300/2400 04005KT CAVOK BECMG 2319/2321 04015KT

超过4000个机场的气象观测和天气预报(METAR&TAF报告)。

可查询的气象台以黄色和红色小点在地图上表示。

将鼠标移到小点上方,可查看气象台名称。

然后点击查看天气观测和预报。

如需切换地图:点击带黑十字的绿色按钮放大地图;点击带横线的绿色按钮缩小地图;或者点击绿色箭头查看邻近地区的地图。


METAR-TAF: